KDRA/DRA METAR and TAF weather

Enter ICAO airport designator
Station Type Date Time Source
KDRA METAR 2018/01/24 06:55 UTC NOAA

KDRA 240655Z AUTO 10008KT 10SM CLR 06/M04 A3027 RMK AO2 SLP237 T00611039


Station Type Date Time Source
KDRA Decoded METAR 2018/01/24 06:55 UTC NOAA

DESERT ROCK AIRPORT, NV, United States (KDRA) 36-38N 116-02W 1006M
Jan 24, 2018 - 01:55 AM EST / 2018.01.24 0655 UTC
Wind: from the E (100 degrees) at 9 MPH (8 KT):0
Visibility: 10 mile(s):0
Sky conditions: clear
Temperature: 43.0 F (6.1 C)
Dew Point: 25.0 F (-3.9 C)
Relative Humidity: 48%
Pressure (altimeter): 30.27 in. Hg (1025 hPa)
ob: KDRA 240655Z AUTO 10008KT 10SM CLR 06/M04 A3027 RMK AO2 SLP237 T00611039
cycle: 7

Station Type Date Time Source
KDRA TAF 2011/12/07 06:36 UTC NOAA

TAF KDRA 070532Z 0706/0806 VRB04KT P6SM SKC


Example: see airport list